createdAt,value
2022-10-07T00:00:52.621Z,2.60
2022-10-07T00:03:21.662Z,3.15
2022-10-07T00:05:58.762Z,3.20
2022-10-07T00:08:27.470Z,2.78
2022-10-07T00:10:53.888Z,2.95
2022-10-07T00:13:20.285Z,2.45
2022-10-07T00:15:46.860Z,2.70
2022-10-07T00:18:13.275Z,2.95
2022-10-07T00:20:40.150Z,2.78
2022-10-07T00:23:07.885Z,2.70
2022-10-07T00:25:37.898Z,3.00
2022-10-07T00:28:05.105Z,2.75
2022-10-07T00:30:31.726Z,2.60
2022-10-07T00:32:58.243Z,2.67
2022-10-07T00:35:24.624Z,3.25
2022-10-07T00:37:51.039Z,3.05
2022-10-07T00:40:17.599Z,3.08
2022-10-07T00:42:44.379Z,3.10
2022-10-07T00:45:16.478Z,3.20
2022-10-07T00:47:48.937Z,3.15
2022-10-07T00:50:26.515Z,3.30
2022-10-07T00:52:57.469Z,2.92
2022-10-07T00:55:27.019Z,3.20
2022-10-07T00:57:57.259Z,2.80
2022-10-07T01:00:24.176Z,3.00
2022-10-07T01:02:54.297Z,2.75
2022-10-07T01:05:20.978Z,2.63
2022-10-07T01:07:49.372Z,2.65
2022-10-07T01:10:20.023Z,2.50
2022-10-07T01:12:55.261Z,2.90
2022-10-07T01:15:24.929Z,2.58
2022-10-07T01:18:16.887Z,2.47
2022-10-07T01:21:08.296Z,2.58
2022-10-07T01:24:10.258Z,2.30
2022-10-07T01:26:42.734Z,2.65
2022-10-07T01:29:12.376Z,2.58
2022-10-07T01:31:45.580Z,2.60
2022-10-07T01:34:14.470Z,3.22
2022-10-07T01:36:42.910Z,2.90
2022-10-07T01:39:13.077Z,3.40
2022-10-07T01:41:40.265Z,3.10
2022-10-07T01:44:12.995Z,3.20
2022-10-07T01:46:39.562Z,3.40
2022-10-07T01:49:07.139Z,3.63
2022-10-07T01:51:37.147Z,4.07
2022-10-07T01:54:06.368Z,4.30
2022-10-07T01:57:00.856Z,5.05
2022-10-07T01:59:27.239Z,4.50
2022-10-07T02:02:24.290Z,5.05
2022-10-07T02:05:12.071Z,5.30
2022-10-07T02:08:12.649Z,5.20
2022-10-07T02:11:20.465Z,6.53
2022-10-07T02:13:56.042Z,6.07
2022-10-07T02:16:28.212Z,6.07
2022-10-07T02:18:54.772Z,5.75
2022-10-07T02:21:26.809Z,6.35
2022-10-07T02:23:56.797Z,6.03
2022-10-07T02:26:26.763Z,6.38
2022-10-07T02:28:56.937Z,6.40
2022-10-07T02:31:32.908Z,6.82
2022-10-07T02:34:02.588Z,6.63
2022-10-07T02:36:36.347Z,7.07
2022-10-07T02:41:41.917Z,7.15
2022-10-07T02:44:20.208Z,7.70
2022-10-07T02:46:57.816Z,7.70
2022-10-07T02:49:26.623Z,8.55
2022-10-07T02:51:59.265Z,8.32
2022-10-07T02:54:36.950Z,8.77
2022-10-07T02:57:05.804Z,8.40
2022-10-07T02:59:33.848Z,7.93
2022-10-07T03:02:03.071Z,7.72
2022-10-07T03:04:32.124Z,8.65
2022-10-07T03:06:58.926Z,9.40
2022-10-07T03:09:26.194Z,9.38
2022-10-07T03:11:52.583Z,8.55
2022-10-07T03:14:19.057Z,8.50
2022-10-07T03:16:45.498Z,8.88
2022-10-07T03:19:14.257Z,7.47
2022-10-07T03:21:41.281Z,8.10
2022-10-07T03:24:08.021Z,7.68
2022-10-07T03:26:35.351Z,7.60
2022-10-07T03:29:02.173Z,8.77
2022-10-07T03:31:29.180Z,7.75
2022-10-07T03:33:57.049Z,8.35
2022-10-07T03:36:24.602Z,8.35
2022-10-07T03:38:51.345Z,7.65
2022-10-07T03:41:20.754Z,8.20
2022-10-07T03:43:47.205Z,7.25
2022-10-07T03:46:13.883Z,7.88
2022-10-07T03:48:40.333Z,7.82
2022-10-07T03:51:09.022Z,7.80
2022-10-07T03:53:41.295Z,7.85
2022-10-07T03:56:08.220Z,7.57
2022-10-07T03:58:34.695Z,6.90
2022-10-07T04:01:09.516Z,8.20
2022-10-07T04:03:36.002Z,7.50
2022-10-07T04:06:03.750Z,7.85
2022-10-07T04:08:32.774Z,7.40
2022-10-07T04:11:00.685Z,7.13
2022-10-07T04:13:27.667Z,7.22
2022-10-07T04:15:56.832Z,6.95
2022-10-07T04:18:23.721Z,7.07
2022-10-07T04:20:50.254Z,7.30
2022-10-07T04:23:16.675Z,7.80
2022-10-07T04:25:44.836Z,8.35
2022-10-07T04:28:19.734Z,7.95
2022-10-07T04:30:51.693Z,8.05
2022-10-07T04:33:19.266Z,7.70
2022-10-07T04:35:45.748Z,7.63
2022-10-07T04:38:13.448Z,7.60
2022-10-07T04:40:48.046Z,6.93
2022-10-07T04:43:24.229Z,6.97
2022-10-07T04:45:59.806Z,6.25
2022-10-07T04:48:27.178Z,5.97
2022-10-07T04:50:54.727Z,7.18
2022-10-07T04:53:21.181Z,6.43
2022-10-07T04:55:50.896Z,6.90
2022-10-07T04:58:18.609Z,6.65
2022-10-07T05:00:50.707Z,6.32
2022-10-07T05:03:19.086Z,6.97
2022-10-07T05:05:47.920Z,6.30
2022-10-07T05:08:16.911Z,6.97
2022-10-07T05:10:43.636Z,7.07
2022-10-07T05:13:13.303Z,6.90
2022-10-07T05:15:50.011Z,6.20
2022-10-07T05:18:18.630Z,6.70
2022-10-07T05:20:47.481Z,6.93
2022-10-07T05:23:15.298Z,6.38
2022-10-07T05:25:43.809Z,7.35
2022-10-07T05:28:11.498Z,6.63
2022-10-07T05:30:38.505Z,6.60
2022-10-07T05:33:09.982Z,7.72
2022-10-07T05:35:36.512Z,7.40
2022-10-07T05:38:03.317Z,8.23
2022-10-07T05:40:29.747Z,8.20
2022-10-07T05:42:56.204Z,8.20
2022-10-07T05:45:22.675Z,8.73
2022-10-07T05:47:49.107Z,10.20
2022-10-07T05:50:17.940Z,9.25
2022-10-07T05:52:45.341Z,10.18
2022-10-07T05:55:11.967Z,9.90
2022-10-07T05:57:39.872Z,10.20
2022-10-07T06:00:07.166Z,10.85
2022-10-07T06:02:33.706Z,10.95
2022-10-07T06:05:01.100Z,10.68
2022-10-07T06:07:29.544Z,10.48
2022-10-07T06:10:17.576Z,10.70
2022-10-07T06:13:02.365Z,10.85
2022-10-07T06:15:30.537Z,10.20
2022-10-07T06:17:56.967Z,9.70
2022-10-07T06:20:23.374Z,9.52
2022-10-07T06:22:49.825Z,8.75
2022-10-07T06:25:16.602Z,9.15
2022-10-07T06:27:43.345Z,9.13
2022-10-07T06:30:10.393Z,8.23
2022-10-07T06:32:36.831Z,8.23
2022-10-07T06:35:03.450Z,8.60
2022-10-07T06:37:31.905Z,8.60
2022-10-07T06:39:59.741Z,7.22
2022-10-07T06:42:28.562Z,7.45
2022-10-07T06:44:55.036Z,7.07
2022-10-07T06:47:21.811Z,7.03
2022-10-07T06:49:48.396Z,7.05
2022-10-07T06:52:17.345Z,7.10
2022-10-07T06:54:43.844Z,7.30
2022-10-07T06:57:33.183Z,6.75
2022-10-07T07:00:01.009Z,6.70
2022-10-07T07:02:30.656Z,7.13
2022-10-07T07:04:59.517Z,6.63
2022-10-07T07:07:26.124Z,7.07
2022-10-07T07:09:52.569Z,7.30
2022-10-07T07:12:19.000Z,7.05
2022-10-07T07:14:45.795Z,6.47
2022-10-07T07:17:12.393Z,7.13
2022-10-07T07:19:38.859Z,8.27
2022-10-07T07:22:06.045Z,8.85
2022-10-07T07:24:32.555Z,8.50
2022-10-07T07:26:58.985Z,9.77
2022-10-07T07:29:26.480Z,8.65
2022-10-07T07:31:52.954Z,9.05
2022-10-07T07:34:19.471Z,8.95
2022-10-07T07:36:51.089Z,9.40
2022-10-07T07:39:18.480Z,9.70
2022-10-07T07:41:50.702Z,9.20
2022-10-07T07:44:20.461Z,9.05
2022-10-07T07:46:52.033Z,8.93
2022-10-07T07:49:21.974Z,8.90
2022-10-07T07:51:48.935Z,10.05
2022-10-07T07:54:15.624Z,10.40
2022-10-07T07:56:42.585Z,9.70
2022-10-07T07:59:10.956Z,9.93
2022-10-07T08:01:37.607Z,10.38
2022-10-07T08:04:04.307Z,10.35
2022-10-07T08:06:31.458Z,9.82
2022-10-07T08:09:00.488Z,9.60
2022-10-07T08:11:29.559Z,10.63
2022-10-07T08:13:57.043Z,9.23
2022-10-07T08:16:26.340Z,11.07
2022-10-07T08:18:55.018Z,10.55
2022-10-07T08:21:23.585Z,10.88
2022-10-07T08:23:57.486Z,10.73
2022-10-07T08:26:31.023Z,10.68
2022-10-07T08:28:58.365Z,10.15
2022-10-07T08:31:29.319Z,9.43
2022-10-07T08:34:03.253Z,9.95
2022-10-07T08:38:59.958Z,9.32
2022-10-07T08:41:33.990Z,10.32
2022-10-07T08:44:17.830Z,10.18
2022-10-07T08:46:53.393Z,10.07
2022-10-07T08:49:30.688Z,10.48
2022-10-07T08:52:21.108Z,10.00
2022-10-07T08:54:47.579Z,10.00
2022-10-07T08:57:21.891Z,10.75
2022-10-07T08:59:56.024Z,10.05
2022-10-07T09:02:34.482Z,10.82
2022-10-07T09:05:22.434Z,10.05
2022-10-07T09:07:53.775Z,11.23
2022-10-07T09:11:02.476Z,10.70
2022-10-07T09:13:36.010Z,10.55
2022-10-07T09:16:11.882Z,12.23
2022-10-07T09:18:41.849Z,14.93
2022-10-07T09:21:19.972Z,13.43
2022-10-07T09:23:47.203Z,13.85
2022-10-07T09:26:16.767Z,13.00
2022-10-07T09:28:45.785Z,13.38
2022-10-07T09:31:15.058Z,13.73
2022-10-07T09:33:44.660Z,13.25
2022-10-07T09:36:17.053Z,12.45
2022-10-07T09:38:46.023Z,13.20
2022-10-07T09:41:36.028Z,12.60
2022-10-07T09:44:23.821Z,12.88
2022-10-07T09:46:54.112Z,13.23
2022-10-07T09:49:29.504Z,14.73
2022-10-07T09:52:05.106Z,15.20
2022-10-07T09:54:36.132Z,14.18
2022-10-07T09:57:05.093Z,14.63
2022-10-07T09:59:33.923Z,14.55
2022-10-07T10:02:15.779Z,14.45
2022-10-07T10:04:50.263Z,14.20
2022-10-07T10:07:18.930Z,15.05
2022-10-07T10:09:56.688Z,15.35
2022-10-07T10:12:28.744Z,15.57
2022-10-07T10:14:58.954Z,15.63
2022-10-07T10:17:34.610Z,15.18
2022-10-07T10:20:39.633Z,14.80
2022-10-07T10:23:34.569Z,15.77
2022-10-07T10:26:28.314Z,16.60
2022-10-07T10:29:05.379Z,18.08
2022-10-07T10:31:53.932Z,18.65
2022-10-07T10:35:03.524Z,18.85
2022-10-07T10:37:33.206Z,21.23
2022-10-07T10:40:19.096Z,20.52
2022-10-07T10:42:54.218Z,96.82
2022-10-07T10:45:39.408Z,34.30
2022-10-07T10:48:17.905Z,27.30
2022-10-07T10:51:01.542Z,26.50
2022-10-07T10:53:36.393Z,34.38
2022-10-07T10:56:27.053Z,33.83
2022-10-07T10:59:12.748Z,25.83
2022-10-07T11:01:47.028Z,32.40
2022-10-07T11:04:25.560Z,38.22
2022-10-07T11:07:00.834Z,27.48
2022-10-07T11:09:45.559Z,24.70
2022-10-07T11:12:26.128Z,24.92
2022-10-07T11:14:58.870Z,29.45
2022-10-07T11:17:32.109Z,30.17
2022-10-07T11:20:21.479Z,26.60
2022-10-07T11:22:56.646Z,27.02
2022-10-07T11:25:43.396Z,27.48
2022-10-07T11:28:30.587Z,27.77
2022-10-07T11:30:57.107Z,29.30
2022-10-07T11:33:32.594Z,28.83
2022-10-07T11:36:12.479Z,27.52
2022-10-07T11:38:39.776Z,27.65
2022-10-07T11:41:42.521Z,27.00
2022-10-07T11:44:40.628Z,28.02
2022-10-07T11:47:12.941Z,28.00
2022-10-07T11:50:00.144Z,26.77
2022-10-07T11:52:35.909Z,28.17
2022-10-07T11:55:09.683Z,28.10
2022-10-07T11:57:43.723Z,30.45
2022-10-07T12:00:25.402Z,29.80
2022-10-07T12:02:53.508Z,29.17
2022-10-07T12:05:37.683Z,29.42
2022-10-07T12:08:31.539Z,31.10
2022-10-07T12:11:13.350Z,29.55
2022-10-07T12:13:45.919Z,29.38
2022-10-07T12:16:31.404Z,29.30
2022-10-07T12:19:06.201Z,29.95
2022-10-07T12:22:02.856Z,29.95
2022-10-07T12:24:31.734Z,30.33
2022-10-07T12:27:07.352Z,30.45
2022-10-07T12:30:02.249Z,30.33
2022-10-07T12:32:52.984Z,30.73
2022-10-07T12:35:39.916Z,30.52
2022-10-07T12:38:15.321Z,31.58
2022-10-07T12:40:44.123Z,30.85
2022-10-07T12:43:45.145Z,33.22
2022-10-07T12:46:18.635Z,37.20
2022-10-07T12:48:53.720Z,32.53
2022-10-07T12:51:28.474Z,30.48
2022-10-07T12:53:58.837Z,30.83
2022-10-07T12:56:29.662Z,31.10
2022-10-07T12:59:21.187Z,31.17
2022-10-07T13:02:25.224Z,31.90
2022-10-07T13:05:03.717Z,32.90
2022-10-07T13:07:43.604Z,30.80
2022-10-07T13:10:31.864Z,30.63
2022-10-07T13:13:33.565Z,31.17
2022-10-07T13:16:11.641Z,29.17
2022-10-07T13:18:53.587Z,29.92
2022-10-07T13:21:27.350Z,29.65
2022-10-07T13:26:26.730Z,29.83
2022-10-07T13:28:55.921Z,30.17
2022-10-07T13:31:25.043Z,28.83
2022-10-07T13:33:53.358Z,28.05
2022-10-07T13:36:32.905Z,28.08
2022-10-07T13:39:21.732Z,28.05
2022-10-07T13:41:54.524Z,27.23
2022-10-07T13:44:27.350Z,28.95
2022-10-07T13:47:01.303Z,28.85
2022-10-07T13:49:33.107Z,27.63
2022-10-07T13:52:04.692Z,26.83
2022-10-07T13:54:33.831Z,28.75
2022-10-07T13:57:07.755Z,31.08
2022-10-07T13:59:36.918Z,29.92
2022-10-07T14:02:04.349Z,29.48
2022-10-07T14:04:33.431Z,28.48
2022-10-07T14:07:14.493Z,29.65
2022-10-07T14:09:48.023Z,29.15
2022-10-07T14:12:22.260Z,26.85
2022-10-07T14:14:52.756Z,27.17
2022-10-07T14:17:28.309Z,26.30
2022-10-07T14:20:05.884Z,25.52
2022-10-07T14:22:41.961Z,24.77
2022-10-07T14:25:26.360Z,23.20
2022-10-07T14:27:54.503Z,23.25
2022-10-07T14:30:25.245Z,24.05
2022-10-07T14:33:48.278Z,25.50
2022-10-07T14:36:20.712Z,25.15
2022-10-07T14:38:49.889Z,26.27
2022-10-07T14:41:20.172Z,26.42
2022-10-07T14:43:48.957Z,26.17
2022-10-07T14:46:17.114Z,27.27
2022-10-07T14:48:43.696Z,27.38
2022-10-07T14:51:10.856Z,29.30
2022-10-07T14:53:39.413Z,29.38
2022-10-07T14:56:06.043Z,29.92
2022-10-07T14:58:32.633Z,29.90
2022-10-07T15:00:59.064Z,31.58
2022-10-07T15:03:25.517Z,31.40
2022-10-07T15:05:52.055Z,32.40
2022-10-07T15:08:18.548Z,32.72
2022-10-07T15:10:45.023Z,32.78
2022-10-07T15:13:14.313Z,34.15
2022-10-07T15:15:43.400Z,33.00
2022-10-07T15:18:11.524Z,33.38
2022-10-07T15:20:39.652Z,32.88
2022-10-07T15:23:07.906Z,33.08
2022-10-07T15:25:35.377Z,32.00
2022-10-07T15:28:02.179Z,32.10
2022-10-07T15:30:34.401Z,32.30
2022-10-07T15:33:03.510Z,33.25
2022-10-07T15:35:32.206Z,33.00
2022-10-07T15:37:58.670Z,34.22
2022-10-07T15:40:25.121Z,34.92
2022-10-07T15:42:51.563Z,33.58
2022-10-07T15:45:17.971Z,32.97
2022-10-07T15:47:44.498Z,33.88
2022-10-07T15:50:11.000Z,33.70
2022-10-07T15:52:37.412Z,34.67
2022-10-07T15:55:07.909Z,35.20
2022-10-07T15:57:35.045Z,36.42
2022-10-07T16:00:02.391Z,36.78
2022-10-07T16:02:28.977Z,37.85
2022-10-07T16:04:55.507Z,37.20
2022-10-07T16:07:21.960Z,36.60
2022-10-07T16:09:48.395Z,38.08
2022-10-07T16:12:14.859Z,39.15
2022-10-07T16:14:41.345Z,40.22
2022-10-07T16:17:08.250Z,42.00
2022-10-07T16:19:34.695Z,42.38
2022-10-07T16:22:01.308Z,43.15
2022-10-07T16:24:32.500Z,43.97
2022-10-07T16:27:01.384Z,45.85
2022-10-07T16:29:46.538Z,46.25
2022-10-07T16:32:13.189Z,47.53
2022-10-07T16:34:44.269Z,45.35
2022-10-07T16:37:15.388Z,45.85
2022-10-07T16:39:42.001Z,45.97
2022-10-07T16:42:08.799Z,43.50
2022-10-07T16:44:35.868Z,43.10
2022-10-07T16:47:02.958Z,42.25
2022-10-07T16:49:30.275Z,191.88
2022-10-07T16:52:00.326Z,136.48
2022-10-07T16:54:30.272Z,87.72
2022-10-07T16:56:57.579Z,59.85
2022-10-07T16:59:24.802Z,49.38
2022-10-07T17:01:56.357Z,43.50
2022-10-07T17:04:24.448Z,39.97
2022-10-07T17:06:54.038Z,42.53
2022-10-07T17:09:21.887Z,41.70
2022-10-07T17:11:48.480Z,38.13
2022-10-07T17:14:20.079Z,39.58
2022-10-07T17:16:49.977Z,37.38
2022-10-07T17:19:22.022Z,38.35
2022-10-07T17:21:49.606Z,38.50
2022-10-07T17:24:17.705Z,39.17
2022-10-07T17:26:45.337Z,33.97
2022-10-07T17:29:14.528Z,33.58
2022-10-07T17:31:43.291Z,34.17
2022-10-07T17:34:13.026Z,33.92
2022-10-07T17:36:40.639Z,34.53
2022-10-07T17:39:07.903Z,36.72
2022-10-07T17:41:36.986Z,38.45
2022-10-07T17:44:07.027Z,46.17
2022-10-07T17:46:33.620Z,41.25
2022-10-07T17:49:00.807Z,37.97
2022-10-07T17:51:30.881Z,36.60
2022-10-07T17:54:05.789Z,39.15
2022-10-07T17:56:32.713Z,38.13
2022-10-07T17:58:59.431Z,40.83
2022-10-07T18:01:28.805Z,39.00
2022-10-07T18:04:04.719Z,38.75
2022-10-07T18:06:33.743Z,37.65
2022-10-07T18:09:04.295Z,37.25
2022-10-07T18:12:07.259Z,36.33
2022-10-07T18:14:54.169Z,37.05
2022-10-07T18:17:20.850Z,38.60
2022-10-07T18:19:47.505Z,38.95
2022-10-07T18:22:13.993Z,38.20
2022-10-07T18:24:40.900Z,38.20
2022-10-07T18:27:07.336Z,39.08
2022-10-07T18:29:39.802Z,38.22
2022-10-07T18:32:07.143Z,36.55
2022-10-07T18:34:34.007Z,50.42
2022-10-07T18:37:00.806Z,56.92
2022-10-07T18:39:28.124Z,57.20
2022-10-07T18:41:54.614Z,65.95
2022-10-07T18:44:24.256Z,53.20
2022-10-07T18:46:50.909Z,45.50
2022-10-07T18:49:17.565Z,41.55
2022-10-07T18:51:50.268Z,39.83
2022-10-07T18:54:17.848Z,37.90
2022-10-07T18:56:47.032Z,38.38
2022-10-07T18:59:14.199Z,37.55
2022-10-07T19:01:41.160Z,38.08
2022-10-07T19:04:08.793Z,38.55
2022-10-07T19:06:38.540Z,39.40
2022-10-07T19:09:11.444Z,36.92
2022-10-07T19:11:37.926Z,40.53
2022-10-07T19:14:04.442Z,38.83
2022-10-07T19:16:36.993Z,42.33
2022-10-07T19:19:05.537Z,38.60
2022-10-07T19:21:33.423Z,40.90
2022-10-07T19:24:03.384Z,42.13
2022-10-07T19:26:42.729Z,42.17
2022-10-07T19:29:10.860Z,40.65
2022-10-07T19:31:42.203Z,43.05
2022-10-07T19:34:14.805Z,42.45
2022-10-07T19:36:46.760Z,46.55
2022-10-07T19:39:15.867Z,45.03
2022-10-07T19:41:44.031Z,44.63
2022-10-07T19:44:11.576Z,42.80
2022-10-07T19:46:41.423Z,44.30
2022-10-07T19:49:09.427Z,42.63
2022-10-07T19:51:37.308Z,43.45
2022-10-07T19:54:10.145Z,41.63
2022-10-07T19:56:38.263Z,43.17
2022-10-07T19:59:07.830Z,42.03
2022-10-07T20:01:41.346Z,40.22
2022-10-07T20:04:22.354Z,42.00
2022-10-07T20:06:48.945Z,41.22
2022-10-07T20:09:17.333Z,40.35
2022-10-07T20:11:44.232Z,39.88
2022-10-07T20:14:10.709Z,39.83
2022-10-07T20:16:38.115Z,41.30
2022-10-07T20:19:12.774Z,42.97
2022-10-07T20:21:39.581Z,43.05
2022-10-07T20:24:14.135Z,43.95
2022-10-07T20:26:44.180Z,44.88
2022-10-07T20:29:11.900Z,44.13
2022-10-07T20:31:40.435Z,44.28
2022-10-07T20:34:08.543Z,45.80
2022-10-07T20:36:37.777Z,43.75
2022-10-07T20:39:32.546Z,41.65
2022-10-07T20:42:17.846Z,38.78
2022-10-07T20:44:44.322Z,38.70
2022-10-07T20:47:10.898Z,38.05
2022-10-07T20:49:41.709Z,38.72
2022-10-07T20:52:13.859Z,38.50
2022-10-07T20:54:40.344Z,40.25
2022-10-07T20:57:06.772Z,40.63
2022-10-07T20:59:33.362Z,42.05
2022-10-07T21:02:03.864Z,40.83
2022-10-07T21:04:36.332Z,42.17
2022-10-07T21:07:02.762Z,45.08
2022-10-07T21:09:36.183Z,42.33
2022-10-07T21:12:05.022Z,41.85
2022-10-07T21:14:31.466Z,40.97
2022-10-07T21:16:58.875Z,44.25
2022-10-07T21:19:25.743Z,45.55
2022-10-07T21:21:52.639Z,51.80
2022-10-07T21:24:22.005Z,52.60
2022-10-07T21:26:48.435Z,47.30
2022-10-07T21:29:14.833Z,43.17
2022-10-07T21:31:42.349Z,43.45
2022-10-07T21:34:12.119Z,44.55
2022-10-07T21:36:49.203Z,45.88
2022-10-07T21:39:18.464Z,40.85
2022-10-07T21:41:45.014Z,40.17
2022-10-07T21:44:13.204Z,39.00
2022-10-07T21:46:42.630Z,36.72
2022-10-07T21:49:09.268Z,39.17
2022-10-07T21:51:35.793Z,39.30
2022-10-07T21:54:02.891Z,39.25
2022-10-07T21:56:31.444Z,40.75
2022-10-07T21:59:03.669Z,42.00
2022-10-07T22:01:32.366Z,40.17
2022-10-07T22:04:01.597Z,41.28
2022-10-07T22:06:48.619Z,41.97
2022-10-07T22:09:16.407Z,44.00
2022-10-07T22:11:42.883Z,41.42
2022-10-07T22:14:13.102Z,37.30
2022-10-07T22:16:42.449Z,39.08
2022-10-07T22:19:10.647Z,43.75
2022-10-07T22:21:40.045Z,45.55
2022-10-07T22:24:10.325Z,38.80
2022-10-07T22:26:40.419Z,35.85
2022-10-07T22:29:10.511Z,35.03
2022-10-07T22:31:37.707Z,40.20
2022-10-07T22:34:05.030Z,40.60
2022-10-07T22:36:31.531Z,42.17
2022-10-07T22:38:59.108Z,42.67
2022-10-07T22:41:29.115Z,41.63
2022-10-07T22:43:55.731Z,41.80
2022-10-07T22:46:27.819Z,41.33
2022-10-07T22:48:58.374Z,42.13
2022-10-07T22:51:28.567Z,41.25
2022-10-07T22:53:56.690Z,43.03
2022-10-07T22:56:25.529Z,40.65
2022-10-07T22:58:59.969Z,39.80
2022-10-07T23:01:31.286Z,39.28
2022-10-07T23:04:00.436Z,36.55
2022-10-07T23:06:27.749Z,34.10
2022-10-07T23:08:55.020Z,32.92
2022-10-07T23:11:24.178Z,35.92
2022-10-07T23:13:51.397Z,36.92
2022-10-07T23:16:20.516Z,36.60
2022-10-07T23:18:48.508Z,36.53
2022-10-07T23:21:25.154Z,35.67
2022-10-07T23:23:54.871Z,34.28
2022-10-07T23:26:27.132Z,32.33
2022-10-07T23:28:56.112Z,31.90
2022-10-07T23:31:26.059Z,29.17
2022-10-07T23:33:53.372Z,29.35
2022-10-07T23:36:21.897Z,28.85
2022-10-07T23:38:49.705Z,28.92
2022-10-07T23:41:19.995Z,28.08
2022-10-07T23:43:51.007Z,27.73
2022-10-07T23:46:21.744Z,27.52
2022-10-07T23:48:48.391Z,28.55
2022-10-07T23:51:18.687Z,27.42
2022-10-07T23:53:45.630Z,29.38
2022-10-07T23:56:12.147Z,28.05
2022-10-07T23:58:39.152Z,28.65
